Laguepe — 9HAI9 — position and weather

sailwx.info

Track history (hours):
 
Tides and Currents Weather Stations Pressure Air Temp Water Temp Dewpoint Dewpoint Depression Visibility Wind Speed Wind Dir Waves Ship Positions

Laguepe

Last reported at 2017-Oct-19 03:28 UTC. Time now 2017-Oct-19 03:49 UTC.
Position N 43°23' E 004°48'.

Length 81 m; draft 2.8 m.

Type: Cargo ship. MMSI: 256681000.

Date/timePositionNaut miles runAvg speedWind from/ knotsBaromVisibWave heightAir tempDewpointWater temp
2017-Oct-19 03:28N 43°23' E 004°48'0 0.0
2017-Oct-19 02:58N 43°23' E 004°48'0 0.0
2017-Oct-19 02:25N 43°23' E 004°48'0 0.0
2017-Oct-19 01:55N 43°23' E 004°48'0 0.0
2017-Oct-19 01:28N 43°23' E 004°48'0 0.0
2017-Oct-19 00:55N 43°23' E 004°48'0 0.0
2017-Oct-19 00:22N 43°23' E 004°48'0 0.0
2017-Oct-18 23:55N 43°23' E 004°48'0 0.0
2017-Oct-18 23:28N 43°23' E 004°48'0 0.0
2017-Oct-18 22:58N 43°23' E 004°48'0 0.0
2017-Oct-18 22:28N 43°23' E 004°48'0 0.0
2017-Oct-18 21:58N 43°23' E 004°48'0 0.0
2017-Oct-18 21:28N 43°23' E 004°48'0 0.0
2017-Oct-18 20:58N 43°23' E 004°48'0 0.0
2017-Oct-18 20:28N 43°23' E 004°48'0 0.0
2017-Oct-18 19:58N 43°23' E 004°48'0 0.0
2017-Oct-18 19:28N 43°23' E 004°48'0 0.0
2017-Oct-18 18:58N 43°23' E 004°48'0 0.0
2017-Oct-18 18:28N 43°23' E 004°48'0 0.0
2017-Oct-18 17:55N 43°23' E 004°48'0 0.0
2017-Oct-18 17:28N 43°23' E 004°48'0 0.3
2017-Oct-18 17:00N 43°23' E 004°48'3 6.4
2017-Oct-18 16:31N 43°25' E 004°45'3 6.6
2017-Oct-18 16:00N 43°28' E 004°45'4 7.5
2017-Oct-18 15:30N 43°32' E 004°44'4 7.9
2017-Oct-18 15:00N 43°35' E 004°40'8 6.1
2017-Oct-18 13:46N 43°42' E 004°37'  
2017-Oct-15 10:21N 43°40' E 004°36'6 6.2
2017-Oct-15 09:20N 43°35' E 004°41'2 7.3
2017-Oct-15 09:00N 43°33' E 004°43'4 7.0
2017-Oct-15 08:30N 43°30' E 004°44'5 6.4
2017-Oct-15 07:43N 43°25' E 004°45'1 7.3
2017-Oct-15 07:31N 43°24' E 004°47'1 2.1
2017-Oct-15 06:53N 43°23' E 004°49'1 1.9
2017-Oct-15 06:30N 43°23' E 004°49'4 7.7
2017-Oct-15 06:01N 43°24' E 004°55'4 7.0
2017-Oct-15 05:30N 43°21' E 004°58'3 5.8
2017-Oct-15 04:57N 43°18' E 005°00'3 6.3
2017-Oct-15 04:28N 43°17' E 005°04'3 6.5
2017-Oct-15 04:00N 43°15' E 005°07'4 7.5
2017-Oct-15 03:29N 43°14' E 005°12'3 6.1
2017-Oct-15 03:00N 43°12' E 005°16'4 6.0
2017-Oct-15 02:18N 43°10' E 005°21'4 5.8
2017-Oct-15 01:35N 43°08' E 005°26'1 6.1
2017-Oct-15 01:25N 43°08' E 005°27'162 6.5
2017-Oct-14 00:36N 43°10' E 009°09'2 7.5
2017-Oct-14 00:21N 43°10' E 009°11'3 7.4
2017-Oct-13 23:57N 43°11' E 009°15'3 7.6
2017-Oct-13 23:29N 43°12' E 009°19'5 7.7
2017-Oct-13 22:52N 43°13' E 009°26'3 7.1
2017-Oct-13 22:30N 43°14' E 009°29'3 6.0
2017-Oct-13 22:00N 43°15' E 009°33'3 6.1
2017-Oct-13 21:30N 43°15' E 009°37'4 8.1
2017-Oct-13 21:00N 43°16' E 009°42'4 8.0
2017-Oct-13 20:30N 43°17' E 009°48'4 8.1
2017-Oct-13 20:00N 43°18' E 009°53'4 8.1
2017-Oct-13 19:28N 43°20' E 009°59'4 8.4
2017-Oct-13 19:00N 43°23' E 010°02'5 8.1
2017-Oct-13 18:27N 43°26' E 010°06'4 8.2
2017-Oct-13 17:58N 43°29' E 010°10'4 7.9
2017-Oct-13 17:27N 43°32' E 010°14'3 6.9
2017-Oct-13 17:00N 43°34' E 010°18'0 0.7
2017-Oct-13 16:30N 43°34' E 010°18'0 0.0
2017-Oct-13 16:00N 43°34' E 010°18'0 0.0
2017-Oct-13 15:30N 43°34' E 010°18'0 0.0
2017-Oct-13 15:00N 43°34' E 010°18'0 0.0
2017-Oct-13 14:27N 43°34' E 010°18'0 0.0
2017-Oct-13 14:00N 43°34' E 010°18'0 0.0
2017-Oct-13 13:29N 43°34' E 010°18'0 0.0
2017-Oct-13 13:00N 43°34' E 010°18'0 0.0
2017-Oct-13 12:30N 43°34' E 010°18'0 0.0
2017-Oct-13 12:00N 43°34' E 010°18'0 0.0
2017-Oct-13 11:30N 43°34' E 010°18'0 0.0
2017-Oct-13 11:00N 43°34' E 010°18'0 0.0
2017-Oct-13 10:30N 43°34' E 010°18'0 0.0
2017-Oct-13 10:00N 43°34' E 010°18'0 0.0
2017-Oct-13 09:30N 43°34' E 010°18'0 0.0
2017-Oct-13 09:00N 43°34' E 010°18'0 0.0
2017-Oct-13 08:30N 43°34' E 010°18'0 0.0
2017-Oct-13 08:00N 43°34' E 010°18'0 0.0
2017-Oct-13 07:30N 43°34' E 010°18'0 0.0
2017-Oct-13 07:00N 43°34' E 010°18'0 0.0
2017-Oct-13 06:30N 43°34' E 010°18'0 0.0
2017-Oct-13 06:00N 43°34' E 010°18'2 4.3
2017-Oct-13 05:30N 43°32' E 010°17'3 5.4
2017-Oct-13 05:00N 43°30' E 010°14'1 1.3
2017-Oct-13 04:30N 43°30' E 010°13'1 1.3
2017-Oct-13 04:00N 43°29' E 010°12'1 2.1
2017-Oct-13 03:30N 43°28' E 010°11'3 5.9
2017-Oct-13 03:00N 43°26' E 010°08'4 7.2
2017-Oct-13 02:30N 43°24' E 010°05'4 7.3
2017-Oct-13 02:00N 43°22' E 010°01'4 7.1
2017-Oct-13 01:30N 43°19' E 009°58'3 7.0
2017-Oct-13 01:00N 43°18' E 009°53'4 7.3
2017-Oct-13 00:30N 43°18' E 009°48'4 7.2
2017-Oct-13 00:00N 43°17' E 009°43'4 7.2
2017-Oct-12 23:30N 43°17' E 009°38'4 7.2
2017-Oct-12 22:57N 43°16' E 009°33'3 7.6
2017-Oct-12 22:30N 43°16' E 009°28'4 7.5
2017-Oct-12 22:00N 43°15' E 009°23'5 7.3
2017-Oct-12 21:19N 43°14' E 009°16'188 7.6
2017-Oct-11 20:31N 43°21' E 004°58'0 7.5
2017-Oct-11 20:30N 43°21' E 004°58'  
Track history (hours):
 
Tides and Currents Weather Stations Pressure Air Temp Water Temp Dewpoint Dewpoint Depression Visibility Wind Speed Wind Dir Waves Ship Positions

Laguepe

Last reported at 2017-Oct-19 03:28 UTC. Time now 2017-Oct-19 03:49 UTC.
Position N 43°23' E 004°48'.

Length 81 m; draft 2.8 m.

Type: Cargo ship. MMSI: 256681000.

Date/timePositionNaut miles runAvg speedWind from/ knotsBaromVisibWave heightAir tempDewpointWater temp
2017-Oct-19 03:28N 43°23' E 004°48'0 0.0
2017-Oct-19 02:58N 43°23' E 004°48'0 0.0
2017-Oct-19 02:25N 43°23' E 004°48'0 0.0
2017-Oct-19 01:55N 43°23' E 004°48'0 0.0
2017-Oct-19 01:28N 43°23' E 004°48'0 0.0
2017-Oct-19 00:55N 43°23' E 004°48'0 0.0
2017-Oct-19 00:22N 43°23' E 004°48'0 0.0
2017-Oct-18 23:55N 43°23' E 004°48'0 0.0
2017-Oct-18 23:28N 43°23' E 004°48'0 0.0
2017-Oct-18 22:58N 43°23' E 004°48'0 0.0
2017-Oct-18 22:28N 43°23' E 004°48'0 0.0
2017-Oct-18 21:58N 43°23' E 004°48'0 0.0
2017-Oct-18 21:28N 43°23' E 004°48'0 0.0
2017-Oct-18 20:58N 43°23' E 004°48'0 0.0
2017-Oct-18 20:28N 43°23' E 004°48'0 0.0
2017-Oct-18 19:58N 43°23' E 004°48'0 0.0
2017-Oct-18 19:28N 43°23' E 004°48'0 0.0
2017-Oct-18 18:58N 43°23' E 004°48'0 0.0
2017-Oct-18 18:28N 43°23' E 004°48'0 0.0
2017-Oct-18 17:55N 43°23' E 004°48'0 0.0
2017-Oct-18 17:28N 43°23' E 004°48'0 0.3
2017-Oct-18 17:00N 43°23' E 004°48'3 6.4
2017-Oct-18 16:31N 43°25' E 004°45'3 6.6
2017-Oct-18 16:00N 43°28' E 004°45'4 7.5
2017-Oct-18 15:30N 43°32' E 004°44'4 7.9
2017-Oct-18 15:00N 43°35' E 004°40'8 6.1
2017-Oct-18 13:46N 43°42' E 004°37'  
2017-Oct-15 10:21N 43°40' E 004°36'6 6.2
2017-Oct-15 09:20N 43°35' E 004°41'2 7.3
2017-Oct-15 09:00N 43°33' E 004°43'4 7.0
2017-Oct-15 08:30N 43°30' E 004°44'5 6.4
2017-Oct-15 07:43N 43°25' E 004°45'1 7.3
2017-Oct-15 07:31N 43°24' E 004°47'1 2.1
2017-Oct-15 06:53N 43°23' E 004°49'1 1.9
2017-Oct-15 06:30N 43°23' E 004°49'4 7.7
2017-Oct-15 06:01N 43°24' E 004°55'4 7.0
2017-Oct-15 05:30N 43°21' E 004°58'3 5.8
2017-Oct-15 04:57N 43°18' E 005°00'3 6.3
2017-Oct-15 04:28N 43°17' E 005°04'3 6.5
2017-Oct-15 04:00N 43°15' E 005°07'4 7.5
2017-Oct-15 03:29N 43°14' E 005°12'3 6.1
2017-Oct-15 03:00N 43°12' E 005°16'4 6.0
2017-Oct-15 02:18N 43°10' E 005°21'4 5.8
2017-Oct-15 01:35N 43°08' E 005°26'1 6.1
2017-Oct-15 01:25N 43°08' E 005°27'162 6.5
2017-Oct-14 00:36N 43°10' E 009°09'2 7.5
2017-Oct-14 00:21N 43°10' E 009°11'3 7.4
2017-Oct-13 23:57N 43°11' E 009°15'3 7.6
2017-Oct-13 23:29N 43°12' E 009°19'5 7.7
2017-Oct-13 22:52N 43°13' E 009°26'3 7.1
2017-Oct-13 22:30N 43°14' E 009°29'3 6.0
2017-Oct-13 22:00N 43°15' E 009°33'3 6.1
2017-Oct-13 21:30N 43°15' E 009°37'4 8.1
2017-Oct-13 21:00N 43°16' E 009°42'4 8.0
2017-Oct-13 20:30N 43°17' E 009°48'4 8.1
2017-Oct-13 20:00N 43°18' E 009°53'4 8.1
2017-Oct-13 19:28N 43°20' E 009°59'4 8.4
2017-Oct-13 19:00N 43°23' E 010°02'5 8.1
2017-Oct-13 18:27N 43°26' E 010°06'4 8.2
2017-Oct-13 17:58N 43°29' E 010°10'4 7.9
2017-Oct-13 17:27N 43°32' E 010°14'3 6.9
2017-Oct-13 17:00N 43°34' E 010°18'0 0.7
2017-Oct-13 16:30N 43°34' E 010°18'0 0.0
2017-Oct-13 16:00N 43°34' E 010°18'0 0.0
2017-Oct-13 15:30N 43°34' E 010°18'0 0.0
2017-Oct-13 15:00N 43°34' E 010°18'0 0.0
2017-Oct-13 14:27N 43°34' E 010°18'0 0.0
2017-Oct-13 14:00N 43°34' E 010°18'0 0.0
2017-Oct-13 13:29N 43°34' E 010°18'0 0.0
2017-Oct-13 13:00N 43°34' E 010°18'0 0.0
2017-Oct-13 12:30N 43°34' E 010°18'0 0.0
2017-Oct-13 12:00N 43°34' E 010°18'0 0.0
2017-Oct-13 11:30N 43°34' E 010°18'0 0.0
2017-Oct-13 11:00N 43°34' E 010°18'0 0.0
2017-Oct-13 10:30N 43°34' E 010°18'0 0.0
2017-Oct-13 10:00N 43°34' E 010°18'0 0.0
2017-Oct-13 09:30N 43°34' E 010°18'0 0.0
2017-Oct-13 09:00N 43°34' E 010°18'0 0.0
2017-Oct-13 08:30N 43°34' E 010°18'0 0.0
2017-Oct-13 08:00N 43°34' E 010°18'0 0.0
2017-Oct-13 07:30N 43°34' E 010°18'0 0.0
2017-Oct-13 07:00N 43°34' E 010°18'0 0.0
2017-Oct-13 06:30N 43°34' E 010°18'0 0.0
2017-Oct-13 06:00N 43°34' E 010°18'2 4.3
2017-Oct-13 05:30N 43°32' E 010°17'3 5.4
2017-Oct-13 05:00N 43°30' E 010°14'1 1.3
2017-Oct-13 04:30N 43°30' E 010°13'1 1.3
2017-Oct-13 04:00N 43°29' E 010°12'1 2.1
2017-Oct-13 03:30N 43°28' E 010°11'3 5.9
2017-Oct-13 03:00N 43°26' E 010°08'4 7.2
2017-Oct-13 02:30N 43°24' E 010°05'4 7.3
2017-Oct-13 02:00N 43°22' E 010°01'4 7.1
2017-Oct-13 01:30N 43°19' E 009°58'3 7.0
2017-Oct-13 01:00N 43°18' E 009°53'4 7.3
2017-Oct-13 00:30N 43°18' E 009°48'4 7.2
2017-Oct-13 00:00N 43°17' E 009°43'4 7.2
2017-Oct-12 23:30N 43°17' E 009°38'4 7.2
2017-Oct-12 22:57N 43°16' E 009°33'3 7.6
2017-Oct-12 22:30N 43°16' E 009°28'4 7.5
2017-Oct-12 22:00N 43°15' E 009°23'5 7.3
2017-Oct-12 21:19N 43°14' E 009°16'188 7.6
2017-Oct-11 20:31N 43°21' E 004°58'0 7.5
2017-Oct-11 20:30N 43°21' E 004°58'  

Dump ship's entire track history